Flight Track Log - Related Links

Times and Time Zones

All times are in EDT time to prevent confusion due to time zone crossing. See the TAM3596 flight status page for this flight to view local times or setup timezone preferences in your user account.


Time Position Orientation Groundspeed Altitude Reporting Facility
EDT Latitude Longitude Course Direction KTS MPH feet Rate Location/Type
Sun 11:29:00 PM -15.8399 -49.9140 270° West  Level Estimated
Sun 11:30:00 PM -15.8383 -50.0140 271° West  Level Estimated
Sun 11:31:00 PM -15.8366 -50.1141 271° West  Level Estimated
Sun 11:32:00 PM -15.8349 -50.2141 271° West  Level Estimated
Sun 11:33:00 PM -15.8331 -50.3142 271° West  Level Estimated
Sun 11:34:00 PM -15.8313 -50.4142 271° West  Level Estimated
Sun 11:35:00 PM -15.8295 -50.5143 271° West  Level Estimated
Sun 11:36:00 PM -15.8276 -50.6143 271° West  Level Estimated
Sun 11:37:00 PM -15.8256 -50.7144 271° West  Level Estimated
Sun 11:38:00 PM -15.8237 -50.8144 271° West  Level Estimated
Sun 11:39:00 PM -15.8216 -50.9144 271° West  Level Estimated
Sun 11:40:00 PM -15.8195 -51.0145 271° West  Level Estimated
Sun 11:41:00 PM -15.8174 -51.1145 271° West  Level Estimated
Sun 11:42:00 PM -15.8153 -51.2145 271° West  Level Estimated
Sun 11:43:00 PM -15.8131 -51.3145 271° West  Level Estimated
Sun 11:44:00 PM -15.8108 -51.4146 271° West  Level Estimated
Sun 11:45:00 PM -15.8085 -51.5146 271° West  Level Estimated
Sun 11:46:00 PM -15.8061 -51.6146 271° West  Level Estimated
Sun 11:47:00 PM -15.8037 -51.7146 271° West  Level Estimated
Sun 11:48:00 PM -15.8013 -51.8147 271° West  Level Estimated
Sun 11:49:00 PM -15.7988 -51.9147 271° West  Level Estimated
Sun 11:50:00 PM -15.7963 -52.0147 271° West  Level Estimated
Sun 11:51:00 PM -15.7937 -52.1147 272° West  Level Estimated
Sun 11:52:00 PM -15.7911 -52.2147 272° West  Level Estimated
Sun 11:53:00 PM -15.7884 -52.3147 272° West  Level Estimated
Sun 11:54:00 PM -15.7857 -52.4147 272° West  Level Estimated
Sun 11:55:00 PM -15.7829 -52.5147 272° West  Level Estimated
Sun 11:56:00 PM -15.7801 -52.6147 272° West  Level Estimated
Sun 11:57:00 PM -15.7773 -52.7147 272° West  Level Estimated
Sun 11:58:00 PM -15.7744 -52.8147 272° West  Level Estimated
Sun 11:59:00 PM -15.7714 -52.9147 272° West  Level Estimated
Mon 12:00:00 AM -15.7684 -53.0146 272° West  Level Estimated
Mon 12:01:00 AM -15.7654 -53.1146 272° West  Level Estimated
Mon 12:02:00 AM -15.7623 -53.2146 272° West  Level Estimated
Mon 12:03:00 AM -15.7592 -53.3146 272° West  Level Estimated
Mon 12:04:00 AM -15.7560 -53.4146 272° West  Level Estimated
Mon 12:05:00 AM -15.7528 -53.5145 272° West  Level Estimated
Mon 12:06:00 AM -15.7495 -53.6145 272° West  Level Estimated
Mon 12:07:00 AM -15.7462 -53.7145 272° West  Level Estimated
Mon 12:08:00 AM -15.7428 -53.8144 272° West  Level Estimated
Mon 12:09:00 AM -15.7394 -53.9144 272° West  Level Estimated
Mon 12:10:00 AM -15.7360 -54.0143 272° West  Level Estimated
Mon 12:11:00 AM -15.7325 -54.1143 272° West  Level Estimated
Mon 12:12:00 AM -15.7290 -54.2142 272° West  Level Estimated
Mon 12:13:00 AM -15.7254 -54.3142 272° West  Level Estimated
Mon 12:14:00 AM -15.7218 -54.4141 272° West  Level Estimated
Mon 12:15:00 AM -15.7181 -54.5140 272° West  Level Estimated
Mon 12:16:00 AM -15.7144 -54.6140 272° West  Level Estimated
Mon 12:17:00 AM -15.7106 -54.7139 272° West  Level Estimated
Mon 12:18:00 AM -15.7068 -54.8138 272° West  Level Estimated
Mon 12:19:00 AM -15.7029 -54.9137 272° West  Level Estimated
Mon 12:20:00 AM -15.6990 -55.0136 272° West  Level Estimated
Mon 12:21:00 AM -15.6951 -55.1136 272° West  Level Estimated
Mon 12:22:00 AM -15.6911 -55.2135 272° West  Level Estimated
Mon 12:23:00 AM -15.6870 -55.3134 272° West  Level Estimated
Mon 12:24:00 AM -15.6830 -55.4133 272° West  Level Estimated
Mon 12:25:00 AM -15.6788 -55.5132 272° West  Level Estimated
Mon 12:26:00 AM -15.6747 -55.6131 272° West  Level Estimated
Mon 12:27:00 AM -15.6704 -55.7130 272° West  Level Estimated
Mon 12:28:00 AM -15.6662 -55.8128 273° West  Level Estimated
Mon 12:29:00 AM -15.6619 -55.9127 273° West  Level Estimated
Mon 12:30:00 AM -15.6575 -56.0126 273° West  Level Estimated
Mon 12:31:00 AM -15.6531 -56.1125 273° West  Level Estimated
Mon 12:32:00 AM -15.6529 -56.1167 273° West  Level Estimated
Mon 12:33:00 AM -15.6529 -56.1167 136° Southeast  Level Estimated
Mon 12:34:00 AM -15.6529 -56.1167 136° Southeast  Level Estimated
Mon 12:35:00 AM -15.6529 -56.1167 136° Southeast  Level Estimated
Mon 12:36:00 AM -15.6529 -56.1167 136° Southeast  Level Estimated
Mon 12:37:00 AM -15.6529 -56.1167 136° Southeast  Level Estimated
Mon 12:38:00 AM -15.6529 -56.1167 136° Southeast  Level Estimated
Mon 12:39:00 AM -15.6529 -56.1167 136° Southeast  Level Estimated
Mon 12:40:00 AM -15.6529 -56.1167 136° Southeast  Level Estimated
Mon 12:41:00 AM -15.6529 -56.1167 136° Southeast  Level Estimated
Mon 12:42:00 AM -15.6529 -56.1167 136° Southeast  Level Estimated
Mon 12:43:00 AM -15.6529 -56.1167 136° Southeast  Level Estimated
Mon 12:44:00 AM -15.6529 -56.1167 136° Southeast  Level Estimated
Mon 12:45:00 AM -15.6529 -56.1167 136° Southeast  Level Estimated
Mon 12:46:00 AM -15.6529 -56.1167 136° Southeast  Level Estimated
Mon 12:47:00 AM -15.6529 -56.1167 136° Southeast  Level Estimated

Login

Don't have an account? Register now (free) for customized features, flight alerts, and more!